sensor_id;sensor_type;location;lat;lon;timestamp;temperature;humidity
72126;SHT31;59999;51.676;22.650;2023-03-21T00:01:13;8.55;86.05
72126;SHT31;59999;51.676;22.650;2023-03-21T00:03:39;8.55;86.11
72126;SHT31;59999;51.676;22.650;2023-03-21T00:06:08;8.54;86.20
72126;SHT31;59999;51.676;22.650;2023-03-21T00:08:36;8.51;86.30
72126;SHT31;59999;51.676;22.650;2023-03-21T00:11:05;8.52;86.43
72126;SHT31;59999;51.676;22.650;2023-03-21T00:13:32;8.51;86.54
72126;SHT31;59999;51.676;22.650;2023-03-21T00:18:30;8.49;86.48
72126;SHT31;59999;51.676;22.650;2023-03-21T00:20:58;8.52;86.45
72126;SHT31;59999;51.676;22.650;2023-03-21T00:23:28;8.55;86.43
72126;SHT31;59999;51.676;22.650;2023-03-21T00:25:54;8.54;86.44
72126;SHT31;59999;51.676;22.650;2023-03-21T00:28:21;8.51;86.50
72126;SHT31;59999;51.676;22.650;2023-03-21T00:30:47;8.51;86.51
72126;SHT31;59999;51.676;22.650;2023-03-21T00:33:13;8.51;86.57
72126;SHT31;59999;51.676;22.650;2023-03-21T00:35:40;8.49;86.59
72126;SHT31;59999;51.676;22.650;2023-03-21T00:38:13;8.51;86.60
72126;SHT31;59999;51.676;22.650;2023-03-21T00:40:39;8.49;86.58
72126;SHT31;59999;51.676;22.650;2023-03-21T00:43:05;8.49;86.61
72126;SHT31;59999;51.676;22.650;2023-03-21T00:45:31;8.48;86.66
72126;SHT31;59999;51.676;22.650;2023-03-21T00:47:57;8.46;86.69
72126;SHT31;59999;51.676;22.650;2023-03-21T00:50:24;8.46;86.72
72126;SHT31;59999;51.676;22.650;2023-03-21T00:52:50;8.45;86.67
72126;SHT31;59999;51.676;22.650;2023-03-21T00:55:18;8.45;86.69
72126;SHT31;59999;51.676;22.650;2023-03-21T00:57:44;8.45;86.68
72126;SHT31;59999;51.676;22.650;2023-03-21T01:00:12;8.45;86.79
72126;SHT31;59999;51.676;22.650;2023-03-21T01:02:38;8.45;86.77
72126;SHT31;59999;51.676;22.650;2023-03-21T01:05:26;8.45;86.70
72126;SHT31;59999;51.676;22.650;2023-03-21T01:08:28;8.45;86.74
72126;SHT31;59999;51.676;22.650;2023-03-21T01:10:55;8.45;86.64
72126;SHT31;59999;51.676;22.650;2023-03-21T01:13:23;8.48;86.57
72126;SHT31;59999;51.676;22.650;2023-03-21T01:15:52;8.45;86.51
72126;SHT31;59999;51.676;22.650;2023-03-21T01:18:20;8.45;86.59
72126;SHT31;59999;51.676;22.650;2023-03-21T01:20:47;8.49;86.53
72126;SHT31;59999;51.676;22.650;2023-03-21T01:23:14;8.45;86.52
72126;SHT31;59999;51.676;22.650;2023-03-21T01:25:41;8.44;86.59
72126;SHT31;59999;51.676;22.650;2023-03-21T01:28:08;8.44;86.53
72126;SHT31;59999;51.676;22.650;2023-03-21T01:30:34;8.40;86.61
72126;SHT31;59999;51.676;22.650;2023-03-21T01:33:00;8.42;86.57
72126;SHT31;59999;51.676;22.650;2023-03-21T01:35:26;8.41;86.68
72126;SHT31;59999;51.676;22.650;2023-03-21T01:37:52;8.42;86.56
72126;SHT31;59999;51.676;22.650;2023-03-21T01:40:24;8.41;86.59
72126;SHT31;59999;51.676;22.650;2023-03-21T01:42:50;8.41;86.63
72126;SHT31;59999;51.676;22.650;2023-03-21T01:48:20;8.42;86.46
72126;SHT31;59999;51.676;22.650;2023-03-21T01:50:48;8.42;86.41
72126;SHT31;59999;51.676;22.650;2023-03-21T01:53:18;8.41;86.43
72126;SHT31;59999;51.676;22.650;2023-03-21T01:55:46;8.42;86.32
72126;SHT31;59999;51.676;22.650;2023-03-21T01:58:14;8.44;86.39
72126;SHT31;59999;51.676;22.650;2023-03-21T02:00:49;8.40;86.42
72126;SHT31;59999;51.676;22.650;2023-03-21T02:03:16;8.41;86.30
72126;SHT31;59999;51.676;22.650;2023-03-21T02:06:00;8.40;86.20
72126;SHT31;59999;51.676;22.650;2023-03-21T02:08:28;8.41;86.14
72126;SHT31;59999;51.676;22.650;2023-03-21T02:10:55;8.38;86.21
72126;SHT31;59999;51.676;22.650;2023-03-21T02:13:21;8.37;86.29
72126;SHT31;59999;51.676;22.650;2023-03-21T02:15:58;8.30;86.41
72126;SHT31;59999;51.676;22.650;2023-03-21T02:21:31;8.21;86.79
72126;SHT31;59999;51.676;22.650;2023-03-21T02:24:31;8.23;86.83
72126;SHT31;59999;51.676;22.650;2023-03-21T02:27:20;8.20;86.96
72126;SHT31;59999;51.676;22.650;2023-03-21T02:32:53;8.15;87.14
72126;SHT31;59999;51.676;22.650;2023-03-21T02:38:03;8.11;87.36
72126;SHT31;59999;51.676;22.650;2023-03-21T02:40:51;8.14;87.33
72126;SHT31;59999;51.676;22.650;2023-03-21T02:43:29;8.10;87.39
72126;SHT31;59999;51.676;22.650;2023-03-21T02:46:07;8.11;87.51
72126;SHT31;59999;51.676;22.650;2023-03-21T02:48:38;8.08;87.68
72126;SHT31;59999;51.676;22.650;2023-03-21T02:51:08;8.04;87.82
72126;SHT31;59999;51.676;22.650;2023-03-21T02:53:39;8.03;87.94
72126;SHT31;59999;51.676;22.650;2023-03-21T02:56:08;8.01;88.06
72126;SHT31;59999;51.676;22.650;2023-03-21T02:58:37;8.03;88.14
72126;SHT31;59999;51.676;22.650;2023-03-21T03:01:04;7.98;88.23
72126;SHT31;59999;51.676;22.650;2023-03-21T03:03:31;7.96;88.36
72126;SHT31;59999;51.676;22.650;2023-03-21T03:05:58;7.96;88.46
72126;SHT31;59999;51.676;22.650;2023-03-21T03:08:42;7.93;88.45
72126;SHT31;59999;51.676;22.650;2023-03-21T03:11:27;7.90;88.53
72126;SHT31;59999;51.676;22.650;2023-03-21T03:17:14;7.84;88.67
72126;SHT31;59999;51.676;22.650;2023-03-21T03:20:14;7.83;88.81
72126;SHT31;59999;51.676;22.650;2023-03-21T03:26:07;7.79;89.01
72126;SHT31;59999;51.676;22.650;2023-03-21T03:28:45;7.77;89.06
72126;SHT31;59999;51.676;22.650;2023-03-21T03:31:13;7.76;89.12
72126;SHT31;59999;51.676;22.650;2023-03-21T03:33:45;7.75;89.13
72126;SHT31;59999;51.676;22.650;2023-03-21T03:36:14;7.75;89.23
72126;SHT31;59999;51.676;22.650;2023-03-21T03:38:43;7.73;89.28
72126;SHT31;59999;51.676;22.650;2023-03-21T03:41:27;7.70;89.33
72126;SHT31;59999;51.676;22.650;2023-03-21T03:43:58;7.72;89.36
72126;SHT31;59999;51.676;22.650;2023-03-21T03:46:32;7.73;89.38
72126;SHT31;59999;51.676;22.650;2023-03-21T03:49:30;7.70;89.34
72126;SHT31;59999;51.676;22.650;2023-03-21T03:54:48;7.70;89.47
72126;SHT31;59999;51.676;22.650;2023-03-21T03:57:15;7.67;89.55
72126;SHT31;59999;51.676;22.650;2023-03-21T03:59:43;7.63;89.63
72126;SHT31;59999;51.676;22.650;2023-03-21T04:02:09;7.61;89.61
72126;SHT31;59999;51.676;22.650;2023-03-21T04:04:35;7.59;89.67
72126;SHT31;59999;51.676;22.650;2023-03-21T04:07:02;7.61;89.77
72126;SHT31;59999;51.676;22.650;2023-03-21T04:09:29;7.58;89.79
72126;SHT31;59999;51.676;22.650;2023-03-21T04:11:56;7.58;89.84
72126;SHT31;59999;51.676;22.650;2023-03-21T04:14:23;7.59;89.79
72126;SHT31;59999;51.676;22.650;2023-03-21T04:16:50;7.56;89.87
72126;SHT31;59999;51.676;22.650;2023-03-21T04:19:17;7.55;89.88
72126;SHT31;59999;51.676;22.650;2023-03-21T04:21:43;7.55;89.90
72126;SHT31;59999;51.676;22.650;2023-03-21T04:24:11;7.51;89.93
72126;SHT31;59999;51.676;22.650;2023-03-21T04:26:39;7.49;89.92
72126;SHT31;59999;51.676;22.650;2023-03-21T04:29:05;7.46;89.93
72126;SHT31;59999;51.676;22.650;2023-03-21T04:31:32;7.46;89.95
72126;SHT31;59999;51.676;22.650;2023-03-21T04:34:00;7.45;89.92
72126;SHT31;59999;51.676;22.650;2023-03-21T04:36:27;7.42;89.97
72126;SHT31;59999;51.676;22.650;2023-03-21T04:38:56;7.41;90.01
72126;SHT31;59999;51.676;22.650;2023-03-21T04:41:40;7.39;90.04
72126;SHT31;59999;51.676;22.650;2023-03-21T04:44:07;7.39;90.15
72126;SHT31;59999;51.676;22.650;2023-03-21T04:46:34;7.38;90.21
72126;SHT31;59999;51.676;22.650;2023-03-21T04:49:01;7.36;90.25
72126;SHT31;59999;51.676;22.650;2023-03-21T04:51:27;7.36;90.31
72126;SHT31;59999;51.676;22.650;2023-03-21T04:53:53;7.36;90.30
72126;SHT31;59999;51.676;22.650;2023-03-21T04:56:26;7.36;90.32
72126;SHT31;59999;51.676;22.650;2023-03-21T04:58:58;7.38;90.30
72126;SHT31;59999;51.676;22.650;2023-03-21T05:01:24;7.38;90.35
72126;SHT31;59999;51.676;22.650;2023-03-21T05:04:02;7.41;90.39
72126;SHT31;59999;51.676;22.650;2023-03-21T05:06:29;7.38;90.39
72126;SHT31;59999;51.676;22.650;2023-03-21T05:08:57;7.41;90.41
72126;SHT31;59999;51.676;22.650;2023-03-21T05:11:27;7.42;90.45
72126;SHT31;59999;51.676;22.650;2023-03-21T05:13:54;7.45;90.53
72126;SHT31;59999;51.676;22.650;2023-03-21T05:16:20;7.46;90.41
72126;SHT31;59999;51.676;22.650;2023-03-21T05:18:50;7.54;90.35
72126;SHT31;59999;51.676;22.650;2023-03-21T05:21:17;7.52;90.17
72126;SHT31;59999;51.676;22.650;2023-03-21T05:23:43;7.56;90.04
72126;SHT31;59999;51.676;22.650;2023-03-21T05:26:09;7.52;89.95
72126;SHT31;59999;51.676;22.650;2023-03-21T05:28:35;7.55;90.05
72126;SHT31;59999;51.676;22.650;2023-03-21T05:31:02;7.54;90.10
72126;SHT31;59999;51.676;22.650;2023-03-21T05:33:29;7.54;90.04
72126;SHT31;59999;51.676;22.650;2023-03-21T05:35:55;7.55;89.96
72126;SHT31;59999;51.676;22.650;2023-03-21T05:38:21;7.55;90.04
72126;SHT31;59999;51.676;22.650;2023-03-21T05:40:48;7.51;89.67
72126;SHT31;59999;51.676;22.650;2023-03-21T05:43:15;7.52;89.72
72126;SHT31;59999;51.676;22.650;2023-03-21T05:45:41;7.46;89.53
72126;SHT31;59999;51.676;22.650;2023-03-21T05:48:08;7.49;89.38
72126;SHT31;59999;51.676;22.650;2023-03-21T05:50:33;7.51;89.26
72126;SHT31;59999;51.676;22.650;2023-03-21T05:52:59;7.54;89.23
72126;SHT31;59999;51.676;22.650;2023-03-21T05:55:25;7.52;88.99
72126;SHT31;59999;51.676;22.650;2023-03-21T05:57:51;7.55;88.91
72126;SHT31;59999;51.676;22.650;2023-03-21T06:00:18;7.59;88.75
72126;SHT31;59999;51.676;22.650;2023-03-21T06:02:46;7.61;88.58
72126;SHT31;59999;51.676;22.650;2023-03-21T06:05:12;7.65;88.19
72126;SHT31;59999;51.676;22.650;2023-03-21T06:07:38;7.65;88.03
72126;SHT31;59999;51.676;22.650;2023-03-21T06:10:05;7.70;88.42
72126;SHT31;59999;51.676;22.650;2023-03-21T06:12:31;7.73;87.94
72126;SHT31;59999;51.676;22.650;2023-03-21T06:14:57;7.73;87.82
72126;SHT31;59999;51.676;22.650;2023-03-21T06:17:24;7.77;87.72
72126;SHT31;59999;51.676;22.650;2023-03-21T06:19:50;7.79;87.37
72126;SHT31;59999;51.676;22.650;2023-03-21T06:22:16;7.82;87.59
72126;SHT31;59999;51.676;22.650;2023-03-21T06:24:42;7.87;87.58
72126;SHT31;59999;51.676;22.650;2023-03-21T06:27:08;7.90;87.05
72126;SHT31;59999;51.676;22.650;2023-03-21T06:29:34;7.97;87.09
72126;SHT31;59999;51.676;22.650;2023-03-21T06:32:01;8.04;86.65
72126;SHT31;59999;51.676;22.650;2023-03-21T06:34:26;8.04;86.48
72126;SHT31;59999;51.676;22.650;2023-03-21T06:36:53;8.08;86.34
72126;SHT31;59999;51.676;22.650;2023-03-21T06:39:20;8.10;86.25
72126;SHT31;59999;51.676;22.650;2023-03-21T06:41:46;8.17;86.16
72126;SHT31;59999;51.676;22.650;2023-03-21T06:44:12;8.17;86.18
72126;SHT31;59999;51.676;22.650;2023-03-21T06:46:38;8.21;86.38
72126;SHT31;59999;51.676;22.650;2023-03-21T06:49:04;8.21;85.88
72126;SHT31;59999;51.676;22.650;2023-03-21T06:51:30;8.30;86.17
72126;SHT31;59999;51.676;22.650;2023-03-21T06:53:56;8.35;85.92
72126;SHT31;59999;51.676;22.650;2023-03-21T06:56:22;8.44;85.60
72126;SHT31;59999;51.676;22.650;2023-03-21T06:58:48;8.51;85.16
72126;SHT31;59999;51.676;22.650;2023-03-21T07:01:14;8.59;84.83
72126;SHT31;59999;51.676;22.650;2023-03-21T07:03:40;8.68;84.95
72126;SHT31;59999;51.676;22.650;2023-03-21T07:06:08;8.75;83.80
72126;SHT31;59999;51.676;22.650;2023-03-21T07:08:40;8.77;84.29
72126;SHT31;59999;51.676;22.650;2023-03-21T07:11:06;8.83;83.84
72126;SHT31;59999;51.676;22.650;2023-03-21T07:13:32;8.87;83.88
72126;SHT31;59999;51.676;22.650;2023-03-21T07:15:59;8.93;83.88
72126;SHT31;59999;51.676;22.650;2023-03-21T07:18:25;8.90;83.29
72126;SHT31;59999;51.676;22.650;2023-03-21T07:20:51;8.84;82.98
72126;SHT31;59999;51.676;22.650;2023-03-21T07:23:18;8.87;83.38
72126;SHT31;59999;51.676;22.650;2023-03-21T07:25:47;8.83;83.11
72126;SHT31;59999;51.676;22.650;2023-03-21T07:28:13;8.82;83.09
72126;SHT31;59999;51.676;22.650;2023-03-21T07:30:40;8.86;83.18
72126;SHT31;59999;51.676;22.650;2023-03-21T07:33:06;8.87;83.09
72126;SHT31;59999;51.676;22.650;2023-03-21T07:35:33;8.86;83.10
72126;SHT31;59999;51.676;22.650;2023-03-21T07:38:00;8.80;83.03
72126;SHT31;59999;51.676;22.650;2023-03-21T07:40:27;8.82;83.48
72126;SHT31;59999;51.676;22.650;2023-03-21T07:42:52;8.82;83.12
72126;SHT31;59999;51.676;22.650;2023-03-21T07:45:18;8.86;83.74
72126;SHT31;59999;51.676;22.650;2023-03-21T07:47:47;8.86;83.65
72126;SHT31;59999;51.676;22.650;2023-03-21T07:50:13;8.80;83.21
72126;SHT31;59999;51.676;22.650;2023-03-21T07:52:39;8.76;82.79
72126;SHT31;59999;51.676;22.650;2023-03-21T07:55:06;8.79;82.99
72126;SHT31;59999;51.676;22.650;2023-03-21T07:57:32;8.87;83.32
72126;SHT31;59999;51.676;22.650;2023-03-21T07:59:58;9.03;83.42
72126;SHT31;59999;51.676;22.650;2023-03-21T08:02:24;9.11;82.85
72126;SHT31;59999;51.676;22.650;2023-03-21T08:04:51;9.17;82.24
72126;SHT31;59999;51.676;22.650;2023-03-21T08:07:17;9.20;81.90
72126;SHT31;59999;51.676;22.650;2023-03-21T08:09:43;9.24;81.37
72126;SHT31;59999;51.676;22.650;2023-03-21T08:12:09;9.32;80.61
72126;SHT31;59999;51.676;22.650;2023-03-21T08:14:35;9.37;80.80
72126;SHT31;59999;51.676;22.650;2023-03-21T08:17:02;9.38;79.93
72126;SHT31;59999;51.676;22.650;2023-03-21T08:19:29;9.54;80.28
72126;SHT31;59999;51.676;22.650;2023-03-21T08:21:55;9.59;79.22
72126;SHT31;59999;51.676;22.650;2023-03-21T08:24:25;9.50;78.32
72126;SHT31;59999;51.676;22.650;2023-03-21T08:26:51;9.50;78.35
72126;SHT31;59999;51.676;22.650;2023-03-21T08:29:17;9.48;78.70
72126;SHT31;59999;51.676;22.650;2023-03-21T08:31:43;9.51;78.36
72126;SHT31;59999;51.676;22.650;2023-03-21T08:34:09;9.54;78.27
72126;SHT31;59999;51.676;22.650;2023-03-21T08:36:35;9.67;78.96
72126;SHT31;59999;51.676;22.650;2023-03-21T08:39:03;9.68;78.27
72126;SHT31;59999;51.676;22.650;2023-03-21T08:41:32;9.62;78.09
72126;SHT31;59999;51.676;22.650;2023-03-21T08:43:59;9.58;77.97
72126;SHT31;59999;51.676;22.650;2023-03-21T08:46:24;9.44;77.81
72126;SHT31;59999;51.676;22.650;2023-03-21T08:48:52;9.34;78.45
72126;SHT31;59999;51.676;22.650;2023-03-21T08:51:18;9.16;78.99
72126;SHT31;59999;51.676;22.650;2023-03-21T08:53:44;9.06;79.44
72126;SHT31;59999;51.676;22.650;2023-03-21T08:56:10;9.03;79.70
72126;SHT31;59999;51.676;22.650;2023-03-21T08:58:36;8.96;79.74
72126;SHT31;59999;51.676;22.650;2023-03-21T09:01:04;8.92;80.06
72126;SHT31;59999;51.676;22.650;2023-03-21T09:03:32;8.90;80.50
72126;SHT31;59999;51.676;22.650;2023-03-21T09:05:58;8.92;80.67
72126;SHT31;59999;51.676;22.650;2023-03-21T09:08:24;8.84;80.47
72126;SHT31;59999;51.676;22.650;2023-03-21T09:10:53;8.86;80.62
72126;SHT31;59999;51.676;22.650;2023-03-21T09:13:20;8.82;80.58
72126;SHT31;59999;51.676;22.650;2023-03-21T09:15:46;8.80;81.35
72126;SHT31;59999;51.676;22.650;2023-03-21T09:18:13;8.79;81.58
72126;SHT31;59999;51.676;22.650;2023-03-21T09:20:45;8.83;82.00
72126;SHT31;59999;51.676;22.650;2023-03-21T09:23:13;8.89;81.51
72126;SHT31;59999;51.676;22.650;2023-03-21T09:25:40;8.96;81.73
72126;SHT31;59999;51.676;22.650;2023-03-21T09:28:07;9.11;81.88
72126;SHT31;59999;51.676;22.650;2023-03-21T09:30:34;9.30;81.78
72126;SHT31;59999;51.676;22.650;2023-03-21T09:33:03;9.57;80.72
72126;SHT31;59999;51.676;22.650;2023-03-21T09:35:31;9.72;79.27
72126;SHT31;59999;51.676;22.650;2023-03-21T09:37:57;9.82;78.05
72126;SHT31;59999;51.676;22.650;2023-03-21T09:41:01;9.72;77.35
72126;SHT31;59999;51.676;22.650;2023-03-21T09:48:53;9.59;78.23
72126;SHT31;59999;51.676;22.650;2023-03-21T09:51:26;9.58;77.71
72126;SHT31;59999;51.676;22.650;2023-03-21T09:53:54;9.61;77.54
72126;SHT31;59999;51.676;22.650;2023-03-21T09:56:21;9.65;77.49
72126;SHT31;59999;51.676;22.650;2023-03-21T09:58:53;9.77;77.10
72126;SHT31;59999;51.676;22.650;2023-03-21T10:01:28;9.83;76.59
72126;SHT31;59999;51.676;22.650;2023-03-21T10:04:05;9.95;76.72
72126;SHT31;59999;51.676;22.650;2023-03-21T10:06:34;10.21;76.59
72126;SHT31;59999;51.676;22.650;2023-03-21T10:09:18;10.41;74.42
72126;SHT31;59999;51.676;22.650;2023-03-21T10:14:26;10.48;73.82
72126;SHT31;59999;51.676;22.650;2023-03-21T10:16:56;10.39;73.40
72126;SHT31;59999;51.676;22.650;2023-03-21T10:19:26;10.26;74.65
72126;SHT31;59999;51.676;22.650;2023-03-21T10:21:52;10.16;74.58
72126;SHT31;59999;51.676;22.650;2023-03-21T10:24:21;10.06;74.58
72126;SHT31;59999;51.676;22.650;2023-03-21T10:26:49;9.95;75.22
72126;SHT31;59999;51.676;22.650;2023-03-21T10:29:18;9.83;75.50
72126;SHT31;59999;51.676;22.650;2023-03-21T10:31:47;9.71;76.30
72126;SHT31;59999;51.676;22.650;2023-03-21T10:36:52;9.47;77.23
72126;SHT31;59999;51.676;22.650;2023-03-21T10:39:27;9.41;77.47
72126;SHT31;59999;51.676;22.650;2023-03-21T10:41:56;9.40;77.72
72126;SHT31;59999;51.676;22.650;2023-03-21T10:44:29;9.40;78.34
72126;SHT31;59999;51.676;22.650;2023-03-21T10:47:03;9.44;77.56
72126;SHT31;59999;51.676;22.650;2023-03-21T10:49:30;9.45;78.06
72126;SHT31;59999;51.676;22.650;2023-03-21T10:51:58;9.54;77.74
72126;SHT31;59999;51.676;22.650;2023-03-21T10:54:28;9.65;77.46
72126;SHT31;59999;51.676;22.650;2023-03-21T10:56:59;9.74;76.68
72126;SHT31;59999;51.676;22.650;2023-03-21T10:59:27;9.79;75.43
72126;SHT31;59999;51.676;22.650;2023-03-21T11:01:57;9.78;74.44
72126;SHT31;59999;51.676;22.650;2023-03-21T11:04:26;9.78;74.41
72126;SHT31;59999;51.676;22.650;2023-03-21T11:07:12;9.79;74.90
72126;SHT31;59999;51.676;22.650;2023-03-21T11:09:48;9.81;74.99
72126;SHT31;59999;51.676;22.650;2023-03-21T11:12:17;9.83;75.05
72126;SHT31;59999;51.676;22.650;2023-03-21T11:14:48;9.81;75.32
72126;SHT31;59999;51.676;22.650;2023-03-21T11:19:56;9.57;76.13
72126;SHT31;59999;51.676;22.650;2023-03-21T11:22:26;9.50;77.24
72126;SHT31;59999;51.676;22.650;2023-03-21T11:24:59;9.41;78.18
72126;SHT31;59999;51.676;22.650;2023-03-21T11:27:27;9.31;78.22
72126;SHT31;59999;51.676;22.650;2023-03-21T11:29:57;9.26;78.12
72126;SHT31;59999;51.676;22.650;2023-03-21T11:32:36;9.26;78.43
72126;SHT31;59999;51.676;22.650;2023-03-21T11:35:15;9.28;79.04
72126;SHT31;59999;51.676;22.650;2023-03-21T11:37:50;9.37;79.37
72126;SHT31;59999;51.676;22.650;2023-03-21T11:40:19;9.45;79.36
72126;SHT31;59999;51.676;22.650;2023-03-21T11:42:48;9.61;79.51
72126;SHT31;59999;51.676;22.650;2023-03-21T11:45:22;9.85;79.32
72126;SHT31;59999;51.676;22.650;2023-03-21T11:47:49;10.12;77.79
72126;SHT31;59999;51.676;22.650;2023-03-21T11:50:22;10.32;75.31
72126;SHT31;59999;51.676;22.650;2023-03-21T11:53:02;10.47;74.48
72126;SHT31;59999;51.676;22.650;2023-03-21T11:58:27;10.82;73.23
72126;SHT31;59999;51.676;22.650;2023-03-21T12:01:07;11.02;73.40
72126;SHT31;59999;51.676;22.650;2023-03-21T12:06:25;11.12;70.86
72126;SHT31;59999;51.676;22.650;2023-03-21T12:11:36;10.88;71.53
72126;SHT31;59999;51.676;22.650;2023-03-21T12:14:16;10.75;72.12
72126;SHT31;59999;51.676;22.650;2023-03-21T12:17:05;10.50;72.41
72126;SHT31;59999;51.676;22.650;2023-03-21T12:23:03;9.86;76.07
72126;SHT31;59999;51.676;22.650;2023-03-21T12:29:01;9.38;77.51
72126;SHT31;59999;51.676;22.650;2023-03-21T12:31:43;9.21;78.57
72126;SHT31;59999;51.676;22.650;2023-03-21T12:37:07;9.14;78.65
72126;SHT31;59999;51.676;22.650;2023-03-21T12:39:38;9.19;79.10
72126;SHT31;59999;51.676;22.650;2023-03-21T12:44:53;9.21;80.22
72126;SHT31;59999;51.676;22.650;2023-03-21T12:47:23;9.24;80.39
72126;SHT31;59999;51.676;22.650;2023-03-21T12:50:14;9.23;80.62
72126;SHT31;59999;51.676;22.650;2023-03-21T12:52:49;9.21;80.98
72126;SHT31;59999;51.676;22.650;2023-03-21T12:55:22;9.20;81.03
72126;SHT31;59999;51.676;22.650;2023-03-21T12:58:13;9.19;81.70
72126;SHT31;59999;51.676;22.650;2023-03-21T13:00:53;9.27;81.64
72126;SHT31;59999;51.676;22.650;2023-03-21T13:03:50;9.28;81.51
72126;SHT31;59999;51.676;22.650;2023-03-21T13:06:23;9.40;81.98
72126;SHT31;59999;51.676;22.650;2023-03-21T13:11:30;9.74;81.28
72126;SHT31;59999;51.676;22.650;2023-03-21T13:24:54;10.43;77.01
72126;SHT31;59999;51.676;22.650;2023-03-21T13:27:36;10.54;75.84
72126;SHT31;59999;51.676;22.650;2023-03-21T13:32:41;10.78;76.90
72126;SHT31;59999;51.676;22.650;2023-03-21T13:35:22;10.84;75.82
72126;SHT31;59999;51.676;22.650;2023-03-21T13:37:57;10.87;74.68
72126;SHT31;59999;51.676;22.650;2023-03-21T13:40:26;10.87;75.52
72126;SHT31;59999;51.676;22.650;2023-03-21T13:42:57;10.91;75.90
72126;SHT31;59999;51.676;22.650;2023-03-21T13:45:32;10.95;75.79
72126;SHT31;59999;51.676;22.650;2023-03-21T13:48:03;10.99;74.97
72126;SHT31;59999;51.676;22.650;2023-03-21T13:50:34;11.01;73.33
72126;SHT31;59999;51.676;22.650;2023-03-21T13:56:20;11.04;72.73
72126;SHT31;59999;51.676;22.650;2023-03-21T14:01:19;10.99;72.20
72126;SHT31;59999;51.676;22.650;2023-03-21T14:03:46;10.96;72.45
72126;SHT31;59999;51.676;22.650;2023-03-21T14:06:14;10.94;72.60
72126;SHT31;59999;51.676;22.650;2023-03-21T14:08:44;10.92;72.43
72126;SHT31;59999;51.676;22.650;2023-03-21T14:11:15;10.82;71.58
72126;SHT31;59999;51.676;22.650;2023-03-21T14:13:43;10.68;72.02
72126;SHT31;59999;51.676;22.650;2023-03-21T14:16:14;10.60;72.04
72126;SHT31;59999;51.676;22.650;2023-03-21T14:18:53;10.57;72.36
72126;SHT31;59999;51.676;22.650;2023-03-21T14:21:25;10.58;72.98
72126;SHT31;59999;51.676;22.650;2023-03-21T14:26:21;10.57;72.86
72126;SHT31;59999;51.676;22.650;2023-03-21T14:28:50;10.54;72.00
72126;SHT31;59999;51.676;22.650;2023-03-21T14:31:17;10.48;73.03
72126;SHT31;59999;51.676;22.650;2023-03-21T14:33:54;10.47;72.07
72126;SHT31;59999;51.676;22.650;2023-03-21T14:36:32;10.48;72.63
72126;SHT31;59999;51.676;22.650;2023-03-21T14:41:30;10.47;73.61
72126;SHT31;59999;51.676;22.650;2023-03-21T14:44:31;10.56;72.73
72126;SHT31;59999;51.676;22.650;2023-03-21T14:47:04;10.57;72.24
72126;SHT31;59999;51.676;22.650;2023-03-21T14:49:33;10.58;71.39
72126;SHT31;59999;51.676;22.650;2023-03-21T14:52:02;10.65;71.28
72126;SHT31;59999;51.676;22.650;2023-03-21T14:54:29;10.69;71.09
72126;SHT31;59999;51.676;22.650;2023-03-21T14:56:58;10.77;70.64
72126;SHT31;59999;51.676;22.650;2023-03-21T14:59:29;10.81;70.74
72126;SHT31;59999;51.676;22.650;2023-03-21T15:01:58;10.81;69.42
72126;SHT31;59999;51.676;22.650;2023-03-21T15:04:25;10.77;68.98
72126;SHT31;59999;51.676;22.650;2023-03-21T15:06:54;10.74;69.34
72126;SHT31;59999;51.676;22.650;2023-03-21T15:09:23;10.72;69.30
72126;SHT31;59999;51.676;22.650;2023-03-21T15:11:52;10.71;69.37
72126;SHT31;59999;51.676;22.650;2023-03-21T15:14:32;10.72;69.68
72126;SHT31;59999;51.676;22.650;2023-03-21T15:17:00;10.69;68.98
72126;SHT31;59999;51.676;22.650;2023-03-21T15:19:32;10.71;69.58
72126;SHT31;59999;51.676;22.650;2023-03-21T15:22:04;10.71;69.12
72126;SHT31;59999;51.676;22.650;2023-03-21T15:24:35;10.69;68.94
72126;SHT31;59999;51.676;22.650;2023-03-21T15:27:06;10.67;68.91
72126;SHT31;59999;51.676;22.650;2023-03-21T15:29:34;10.65;69.14
72126;SHT31;59999;51.676;22.650;2023-03-21T15:32:06;10.61;69.29
72126;SHT31;59999;51.676;22.650;2023-03-21T15:34:37;10.58;69.52
72126;SHT31;59999;51.676;22.650;2023-03-21T15:37:06;10.57;68.98
72126;SHT31;59999;51.676;22.650;2023-03-21T15:39:32;10.51;69.54
72126;SHT31;59999;51.676;22.650;2023-03-21T15:42:21;10.43;69.42
72126;SHT31;59999;51.676;22.650;2023-03-21T15:44:48;10.39;70.30
72126;SHT31;59999;51.676;22.650;2023-03-21T15:47:40;10.33;70.62
72126;SHT31;59999;51.676;22.650;2023-03-21T15:50:20;10.26;70.76
72126;SHT31;59999;51.676;22.650;2023-03-21T15:52:49;10.21;70.37
72126;SHT31;59999;51.676;22.650;2023-03-21T15:55:19;10.14;71.12
72126;SHT31;59999;51.676;22.650;2023-03-21T15:57:51;10.09;70.99
72126;SHT31;59999;51.676;22.650;2023-03-21T16:00:30;10.00;70.84
72126;SHT31;59999;51.676;22.650;2023-03-21T16:03:05;9.95;71.48
72126;SHT31;59999;51.676;22.650;2023-03-21T16:05:34;9.92;71.54
72126;SHT31;59999;51.676;22.650;2023-03-21T16:08:04;9.89;71.98
72126;SHT31;59999;51.676;22.650;2023-03-21T16:10:35;9.83;71.98
72126;SHT31;59999;51.676;22.650;2023-03-21T16:13:02;9.81;72.10
72126;SHT31;59999;51.676;22.650;2023-03-21T16:15:31;9.77;72.30
72126;SHT31;59999;51.676;22.650;2023-03-21T16:18:01;9.74;72.42
72126;SHT31;59999;51.676;22.650;2023-03-21T16:20:33;9.71;72.44
72126;SHT31;59999;51.676;22.650;2023-03-21T16:23:00;9.67;72.71
72126;SHT31;59999;51.676;22.650;2023-03-21T16:25:28;9.65;72.92
72126;SHT31;59999;51.676;22.650;2023-03-21T16:27:55;9.62;73.15
72126;SHT31;59999;51.676;22.650;2023-03-21T16:30:22;9.61;73.16
72126;SHT31;59999;51.676;22.650;2023-03-21T16:32:48;9.58;73.24
72126;SHT31;59999;51.676;22.650;2023-03-21T16:35:15;9.54;73.22
72126;SHT31;59999;51.676;22.650;2023-03-21T16:37:42;9.51;73.30
72126;SHT31;59999;51.676;22.650;2023-03-21T16:40:26;9.44;73.34
72126;SHT31;59999;51.676;22.650;2023-03-21T16:42:53;9.40;73.22
72126;SHT31;59999;51.676;22.650;2023-03-21T16:45:19;9.35;73.35
72126;SHT31;59999;51.676;22.650;2023-03-21T16:47:45;9.31;73.37
72126;SHT31;59999;51.676;22.650;2023-03-21T16:50:31;9.26;73.48
72126;SHT31;59999;51.676;22.650;2023-03-21T16:52:58;9.24;73.59
72126;SHT31;59999;51.676;22.650;2023-03-21T16:55:24;9.19;73.68
72126;SHT31;59999;51.676;22.650;2023-03-21T16:57:51;9.14;73.81
72126;SHT31;59999;51.676;22.650;2023-03-21T17:00:24;9.14;74.06
72126;SHT31;59999;51.676;22.650;2023-03-21T17:02:51;9.14;74.33
72126;SHT31;59999;51.676;22.650;2023-03-21T17:05:21;9.13;74.47
72126;SHT31;59999;51.676;22.650;2023-03-21T17:07:47;9.11;74.65
72126;SHT31;59999;51.676;22.650;2023-03-21T17:10:25;9.07;74.93